Time;durP1;ratioP1;P1;durP2;ratioP2;P2;SDS_P1;SDS_P2;PMS_P1;PMS_P2;Temp;Humidity;BMP_temperature;BMP_pressure;BME280_temperature;BME280_humidity;BME280_pressure;Samples;Min_cycle;Max_cycle;Signal;HPM_P1;HPM_P2
2024/04/08 00:01:48;;;;;;;10.10;2.80;;;15.00;97.40;;;;;;5037301;28;20478;-38
2024/04/08 00:04:14;;;;;;;8.57;2.10;;;15.10;97.50;;;;;;5039685;28;20723;-41
2024/04/08 00:06:40;;;;;;;6.82;2.00;;;14.90;97.50;;;;;;5039296;28;20049;-37
2024/04/08 00:09:05;;;;;;;6.40;2.10;;;14.90;98.10;;;;;;5040525;28;20124;-39
2024/04/08 00:11:31;;;;;;;6.97;2.17;;;14.90;98.70;;;;;;5037864;28;20052;-37
2024/04/08 00:13:56;;;;;;;4.75;2.15;;;14.90;99.90;;;;;;5041396;28;20064;-36
2024/04/08 00:16:25;;;;;;;5.60;2.00;;;14.70;99.90;;;;;;5043488;28;20550;-40
2024/04/08 00:18:51;;;;;;;;;;;14.60;99.90;;;;;;5041470;28;20037;-41
2024/04/08 00:21:16;;;;;;;7.18;2.30;;;14.50;99.90;;;;;;5042768;28;19920;-35
2024/04/08 00:23:45;;;;;;;5.10;2.13;;;14.50;99.90;;;;;;5040264;28;20029;-39
2024/04/08 00:26:11;;;;;;;5.78;2.40;;;14.60;99.90;;;;;;5038965;28;20542;-40
2024/04/08 00:28:39;;;;;;;6.88;2.30;;;14.60;99.90;;;;;;5040915;28;20033;-40
2024/04/08 00:31:05;;;;;;;;;;;14.60;99.60;;;;;;5035087;28;20033;-40
2024/04/08 00:33:32;;;;;;;4.07;1.88;;;14.70;99.30;;;;;;5021387;28;19917;-41
2024/04/08 00:35:58;;;;;;;5.25;2.33;;;14.70;99.90;;;;;;5019528;28;20029;-40
2024/04/08 00:38:24;;;;;;;4.40;2.38;;;14.50;99.90;;;;;;5019350;28;20022;-41
2024/04/08 00:40:50;;;;;;;7.93;2.50;;;14.20;99.90;;;;;;5017885;28;20033;-40
2024/04/08 00:43:15;;;;;;;4.30;2.30;;;14.10;99.90;;;;;;5020963;28;20033;-37
2024/04/08 00:45:42;;;;;;;6.45;2.53;;;14.20;99.90;;;;;;5022589;28;20033;-37
2024/04/08 00:48:10;;;;;;;4.82;2.10;;;14.20;99.90;;;;;;5021074;28;20059;-41
2024/04/08 00:50:37;;;;;;;5.63;2.25;;;14.20;99.90;;;;;;5021256;28;20038;-39
2024/04/08 00:53:04;;;;;;;4.18;2.03;;;14.30;99.90;;;;;;5020550;28;20033;-41
2024/04/08 00:55:32;;;;;;;4.72;2.50;;;14.40;99.90;;;;;;5019816;28;20021;-38
2024/04/08 00:57:59;;;;;;;3.53;2.30;;;14.30;99.90;;;;;;5028867;28;20527;-42
2024/04/08 01:00:25;;;;;;;6.55;2.13;;;14.30;99.90;;;;;;5017940;28;20097;-35
2024/04/08 01:02:51;;;;;;;5.22;2.10;;;14.20;99.90;;;;;;5018841;28;20089;-38
2024/04/08 01:05:17;;;;;;;7.63;2.70;;;14.30;99.90;;;;;;5020204;28;20032;-41
2024/04/08 01:07:45;;;;;;;6.15;2.10;;;14.30;99.90;;;;;;5021119;28;20029;-40
2024/04/08 01:10:11;;;;;;;9.60;2.42;;;14.40;99.90;;;;;;5019688;28;20125;-40
2024/04/08 01:12:40;;;;;;;8.63;2.30;;;14.30;99.90;;;;;;5032357;28;20030;-39
2024/04/08 01:15:06;;;;;;;5.55;2.03;;;14.40;99.90;;;;;;5020080;28;20087;-40
2024/04/08 01:17:31;;;;;;;6.55;2.45;;;14.30;99.90;;;;;;5020463;28;20045;-40
2024/04/08 01:19:57;;;;;;;5.80;2.40;;;14.30;99.90;;;;;;5020308;28;20037;-41
2024/04/08 01:22:23;;;;;;;4.88;1.70;;;14.30;99.90;;;;;;5021863;28;20510;-40
2024/04/08 01:24:48;;;;;;;4.85;2.08;;;14.30;99.90;;;;;;5018536;28;20033;-34
2024/04/08 01:27:14;;;;;;;7.15;2.17;;;14.30;99.90;;;;;;5020504;28;20029;-38
2024/04/08 01:29:40;;;;;;;4.25;1.65;;;14.20;99.90;;;;;;5016102;28;20034;-35
2024/04/08 01:32:06;;;;;;;5.43;2.20;;;14.00;99.90;;;;;;5020067;28;20033;-38
2024/04/08 01:34:31;;;;;;;6.38;2.17;;;13.90;99.90;;;;;;5019761;28;20025;-37
2024/04/08 01:36:57;;;;;;;6.07;2.30;;;13.80;99.90;;;;;;5018483;28;20033;-39
2024/04/08 01:39:24;;;;;;;5.50;2.25;;;13.80;99.90;;;;;;5019529;28;20040;-32
2024/04/08 01:41:49;;;;;;;4.22;2.15;;;13.80;99.90;;;;;;5016898;28;20399;-33
2024/04/08 01:44:15;;;;;;;4.10;2.78;;;13.70;99.90;;;;;;5020749;28;20037;-33
2024/04/08 01:46:41;;;;;;;3.38;2.05;;;13.70;99.90;;;;;;5020971;28;20033;-38
2024/04/08 01:49:06;;;;;;;2.83;2.03;;;13.60;99.90;;;;;;5020218;28;20044;-34
2024/04/08 01:51:32;;;;;;;7.43;2.20;;;13.50;99.90;;;;;;5035064;28;20499;-31
2024/04/08 01:53:57;;;;;;;6.68;2.30;;;13.10;99.90;;;;;;5018103;28;20486;-32
2024/04/08 01:56:23;;;;;;;4.10;1.98;;;13.10;99.90;;;;;;5021392;28;20101;-34
2024/04/08 01:58:48;;;;;;;5.63;2.70;;;13.20;99.90;;;;;;5019710;28;20471;-33
2024/04/08 02:01:14;;;;;;;4.95;2.63;;;13.10;99.90;;;;;;5023980;28;20124;-37
2024/04/08 02:03:40;;;;;;;5.65;2.47;;;13.10;99.90;;;;;;5039148;28;20024;-37
2024/04/08 02:06:05;;;;;;;11.20;2.38;;;13.20;99.90;;;;;;5038184;28;20083;-31
2024/04/08 02:08:31;;;;;;;4.72;2.00;;;13.30;99.90;;;;;;5038267;28;20467;-31
2024/04/08 02:10:57;;;;;;;6.43;2.05;;;13.40;99.90;;;;;;5038859;28;20033;-34
2024/04/08 02:13:22;;;;;;;4.32;2.10;;;13.40;99.90;;;;;;5037510;28;20060;-32
2024/04/08 02:15:48;;;;;;;6.28;1.95;;;13.50;99.90;;;;;;5039566;28;20025;-35
2024/04/08 02:18:13;;;;;;;4.00;1.90;;;13.50;99.90;;;;;;5043992;28;20494;-37
2024/04/08 02:20:40;;;;;;;4.07;1.90;;;13.40;99.90;;;;;;5040911;28;20032;-38
2024/04/08 02:23:06;;;;;;;5.60;2.05;;;13.00;99.90;;;;;;5040601;28;20029;-35
2024/04/08 02:25:42;;;;;;;3.35;2.03;;;13.00;99.90;;;;;;5037558;28;20491;-39
2024/04/08 02:28:08;;;;;;;5.13;2.30;;;13.00;99.90;;;;;;5039831;28;20036;-36
2024/04/08 02:30:35;;;;;;;5.45;2.03;;;12.90;99.90;;;;;;5037108;28;20059;-34
2024/04/08 02:33:02;;;;;;;3.73;2.10;;;12.90;99.90;;;;;;5018362;28;20483;-33
2024/04/08 02:35:28;;;;;;;4.80;2.50;;;12.90;99.90;;;;;;5021097;28;20334;-32
2024/04/08 02:37:54;;;;;;;6.38;2.50;;;12.70;99.90;;;;;;5020976;28;20025;-33
2024/04/08 02:40:19;;;;;;;4.35;2.28;;;12.70;99.90;;;;;;5021148;28;20025;-37
2024/04/08 02:42:45;;;;;;;9.90;4.60;;;12.70;99.90;;;;;;5020246;28;20026;-39
2024/04/08 02:45:10;;;;;;;8.15;4.20;;;12.70;99.90;;;;;;5019189;28;20043;-38
2024/04/08 02:47:36;;;;;;;4.80;3.17;;;12.70;99.90;;;;;;5019173;28;20395;-35
2024/04/08 02:50:03;;;;;;;7.03;3.65;;;12.70;99.90;;;;;;5018946;28;20029;-42
2024/04/08 02:52:29;;;;;;;4.65;2.80;;;12.70;99.90;;;;;;5033767;28;20033;-41
2024/04/08 02:54:54;;;;;;;6.95;2.80;;;12.70;99.90;;;;;;5033968;28;20030;-41
2024/04/08 02:57:20;;;;;;;5.43;2.38;;;12.70;99.90;;;;;;5020622;28;20030;-41
2024/04/08 02:59:47;;;;;;;6.63;2.30;;;12.60;99.90;;;;;;5021335;28;20013;-39
2024/04/08 03:02:13;;;;;;;5.95;2.28;;;12.20;99.90;;;;;;5020389;28;20468;-38
2024/04/08 03:04:38;;;;;;;8.57;2.42;;;12.30;99.90;;;;;;5024438;28;20104;-40
2024/04/08 03:07:04;;;;;;;7.13;2.30;;;12.40;99.90;;;;;;5025426;28;20412;-42
2024/04/08 03:09:30;;;;;;;6.00;2.63;;;12.40;99.90;;;;;;5026990;28;20104;-42
2024/04/08 03:11:55;;;;;;;4.47;2.30;;;12.40;99.90;;;;;;5022879;28;20108;-39
2024/04/08 03:14:21;;;;;;;6.05;2.40;;;12.30;99.90;;;;;;5025328;28;20414;-37
2024/04/08 03:16:46;;;;;;;6.40;2.60;;;12.30;99.90;;;;;;5024445;28;20029;-36
2024/04/08 03:19:13;;;;;;;7.45;2.53;;;12.40;99.90;;;;;;5024298;28;20025;-40
2024/04/08 03:21:38;;;;;;;8.45;2.67;;;12.30;99.90;;;;;;5020926;28;20038;-39
2024/04/08 03:24:04;;;;;;;5.82;2.88;;;12.30;99.90;;;;;;5025079;28;20039;-42
2024/04/08 03:26:30;;;;;;;4.75;2.20;;;12.40;99.90;;;;;;5023995;28;21419;-37
2024/04/08 03:28:55;;;;;;;4.15;2.17;;;12.40;99.90;;;;;;5023799;28;21851;-40
2024/04/08 03:31:21;;;;;;;9.00;2.90;;;12.40;99.90;;;;;;5031224;28;20041;-41
2024/04/08 03:33:47;;;;;;;6.70;2.60;;;12.40;99.90;;;;;;5041176;28;20080;-39
2024/04/08 03:36:16;;;;;;;6.18;2.08;;;12.40;99.90;;;;;;5038806;28;20048;-38
2024/04/08 03:38:43;;;;;;;7.00;2.47;;;12.40;99.90;;;;;;5044511;28;20363;-37
2024/04/08 03:41:08;;;;;;;5.82;3.28;;;12.30;99.90;;;;;;5043365;28;20025;-40
2024/04/08 03:43:34;;;;;;;5.50;2.88;;;12.20;99.90;;;;;;5043823;28;20505;-40
2024/04/08 03:46:00;;;;;;;7.85;2.50;;;12.20;99.90;;;;;;5043008;28;20380;-39
2024/04/08 03:48:26;;;;;;;3.22;2.92;;;11.80;99.90;;;;;;5044024;28;20622;-41
2024/04/08 03:50:52;;;;;;;6.75;2.58;;;11.50;99.90;;;;;;5039797;28;20143;-40
2024/04/08 03:53:18;;;;;;;5.80;2.22;;;11.30;99.90;;;;;;5040955;28;20130;-39
2024/04/08 03:55:44;;;;;;;2.83;2.20;;;11.50;99.90;;;;;;5043981;28;20028;-37
2024/04/08 03:58:10;;;;;;;5.03;2.47;;;11.20;99.90;;;;;;5041059;28;20025;-40
2024/04/08 04:00:36;;;;;;;2.80;1.90;;;11.30;99.90;;;;;;5039178;28;20025;-41
2024/04/08 04:03:01;;;;;;;5.40;2.20;;;11.50;99.90;;;;;;5024932;28;20029;-38
2024/04/08 04:05:27;;;;;;;5.88;2.38;;;11.50;99.90;;;;;;5020563;28;20481;-40
2024/04/08 04:07:52;;;;;;;6.75;2.88;;;11.50;99.90;;;;;;5034473;28;20033;-33
2024/04/08 04:10:18;;;;;;;6.90;2.38;;;11.60;99.90;;;;;;5020663;28;20395;-33
2024/04/08 04:12:44;;;;;;;6.32;2.20;;;11.70;99.90;;;;;;5023273;28;20049;-38
2024/04/08 04:15:12;;;;;;;10.50;2.78;;;11.80;99.90;;;;;;5023090;28;20108;-33
2024/04/08 04:17:38;;;;;;;4.78;2.50;;;11.70;99.90;;;;;;5028204;28;20045;-32
2024/04/08 04:20:08;;;;;;;7.20;2.50;;;11.70;99.90;;;;;;5022105;28;20025;-33
2024/04/08 04:22:34;;;;;;;4.43;2.60;;;11.80;99.90;;;;;;5021787;28;20568;-33
2024/04/08 04:24:59;;;;;;;6.60;2.60;;;11.90;99.90;;;;;;5037748;28;20030;-34
2024/04/08 04:27:25;;;;;;;6.85;2.80;;;11.80;99.90;;;;;;5022863;28;20078;-34
2024/04/08 04:29:51;;;;;;;4.13;2.20;;;11.80;99.90;;;;;;5022732;28;20540;-40
2024/04/08 04:32:16;;;;;;;9.98;2.80;;;11.80;99.90;;;;;;5036180;28;20037;-37
2024/04/08 04:34:42;;;;;;;4.03;2.50;;;11.60;99.90;;;;;;5041619;28;20033;-40
2024/04/08 04:37:08;;;;;;;3.65;2.22;;;11.60;99.90;;;;;;5038052;28;20115;-41
2024/04/08 04:39:34;;;;;;;3.67;2.20;;;10.90;99.90;;;;;;5040977;28;20471;-41
2024/04/08 04:42:00;;;;;;;6.00;2.63;;;10.70;99.90;;;;;;5040093;28;20033;-41
2024/04/08 04:44:26;;;;;;;5.55;1.95;;;10.80;99.90;;;;;;5040915;28;20036;-38
2024/04/08 04:46:54;;;;;;;6.28;2.50;;;11.00;99.90;;;;;;5044381;28;20075;-42
2024/04/08 04:49:19;;;;;;;6.57;3.13;;;10.90;99.90;;;;;;5043153;28;20535;-36
2024/04/08 04:51:45;;;;;;;3.30;1.63;;;10.60;99.90;;;;;;5040411;28;20036;-40
2024/04/08 04:54:11;;;;;;;3.78;2.20;;;10.10;99.90;;;;;;5042208;28;20075;-41
2024/04/08 04:56:36;;;;;;;4.18;2.58;;;9.90;99.90;;;;;;5037727;28;20022;-40
2024/04/08 04:59:02;;;;;;;5.95;2.55;;;10.00;99.90;;;;;;5040506;28;20047;-40
2024/04/08 05:01:28;;;;;;;7.80;3.22;;;10.20;99.90;;;;;;5045653;28;20086;-42
2024/04/08 05:03:53;;;;;;;4.10;2.40;;;10.40;99.90;;;;;;5040562;28;20033;-38
2024/04/08 05:06:19;;;;;;;5.72;2.55;;;10.60;99.90;;;;;;5041280;28;20390;-43
2024/04/08 05:08:45;;;;;;;9.13;3.25;;;10.70;99.90;;;;;;5041153;28;20031;-37
2024/04/08 05:11:11;;;;;;;8.07;3.00;;;10.80;99.90;;;;;;5042355;28;20094;-41
2024/04/08 05:13:37;;;;;;;9.90;4.03;;;10.90;99.90;;;;;;5038486;28;20033;-39
2024/04/08 05:16:04;;;;;;;12.63;5.63;;;11.00;99.90;;;;;;5037532;28;20026;-40
2024/04/08 05:18:30;;;;;;;10.02;4.85;;;11.10;99.90;;;;;;5039409;28;20031;-33
2024/04/08 05:21:00;;;;;;;4.53;2.95;;;11.20;99.90;;;;;;5055870;28;20024;-35
2024/04/08 05:23:26;;;;;;;7.15;3.13;;;11.20;99.90;;;;;;5039367;28;20063;-35
2024/04/08 05:25:53;;;;;;;10.20;3.42;;;11.20;99.90;;;;;;5042142;28;20060;-38
2024/04/08 05:28:20;;;;;;;8.57;2.72;;;11.30;99.90;;;;;;5041439;28;20036;-34
2024/04/08 05:30:47;;;;;;;4.22;2.35;;;11.30;99.90;;;;;;5042567;28;20075;-38
2024/04/08 05:33:13;;;;;;;4.72;2.90;;;11.10;99.90;;;;;;5039646;28;20037;-36
2024/04/08 05:35:46;;;;;;;5.47;2.95;;;11.10;99.90;;;;;;5058607;28;20102;-36
2024/04/08 05:38:13;;;;;;;7.10;3.05;;;11.10;99.90;;;;;;5044013;28;20057;-42
2024/04/08 05:40:39;;;;;;;5.82;2.78;;;10.90;99.90;;;;;;5057953;28;20363;-42
2024/04/08 05:43:05;;;;;;;5.47;2.67;;;11.10;99.90;;;;;;5042260;28;20037;-41
2024/04/08 05:45:33;;;;;;;5.50;2.78;;;11.20;99.90;;;;;;5041211;28;21038;-43
2024/04/08 05:47:58;;;;;;;6.03;3.00;;;11.40;99.90;;;;;;5042844;28;20640;-43
2024/04/08 05:50:24;;;;;;;7.13;3.38;;;11.60;99.90;;;;;;5040973;28;20112;-40
2024/04/08 05:52:51;;;;;;;7.60;3.42;;;11.70;99.90;;;;;;5038974;28;20067;-39
2024/04/08 05:55:16;;;;;;;8.45;2.90;;;11.80;99.90;;;;;;5042099;28;20565;-38
2024/04/08 05:57:42;;;;;;;9.10;2.70;;;12.00;99.90;;;;;;5041901;28;20036;-41
2024/04/08 06:00:10;;;;;;;11.88;3.45;;;12.00;99.90;;;;;;5041747;28;20028;-37
2024/04/08 06:02:36;;;;;;;5.28;2.97;;;12.00;99.90;;;;;;5038215;28;20110;-41
2024/04/08 06:05:02;;;;;;;5.53;2.75;;;11.90;99.90;;;;;;5039317;28;20052;-40
2024/04/08 06:07:28;;;;;;;14.88;3.08;;;11.90;99.90;;;;;;5035465;28;20033;-40
2024/04/08 06:09:54;;;;;;;5.85;2.63;;;11.90;99.90;;;;;;5040335;28;20025;-42
2024/04/08 06:12:19;;;;;;;7.05;2.83;;;12.00;99.90;;;;;;5042426;28;20035;-38
2024/04/08 06:14:45;;;;;;;10.00;3.40;;;11.80;99.90;;;;;;5035693;28;20035;-40
2024/04/08 06:17:11;;;;;;;6.43;2.88;;;11.70;99.90;;;;;;5042318;28;20116;-41
2024/04/08 06:19:36;;;;;;;4.40;2.67;;;11.70;99.90;;;;;;5038975;28;20120;-41
2024/04/08 06:22:02;;;;;;;7.78;3.30;;;11.80;99.90;;;;;;5041738;28;20040;-37
2024/04/08 06:24:28;;;;;;;8.07;2.80;;;12.00;99.90;;;;;;5054972;28;20029;-39
2024/04/08 06:26:53;;;;;;;6.32;3.10;;;12.00;99.90;;;;;;5040807;28;20183;-42
2024/04/08 06:29:19;;;;;;;6.47;3.30;;;12.10;99.90;;;;;;5040668;28;20395;-42
2024/04/08 06:31:45;;;;;;;7.65;3.00;;;12.20;99.90;;;;;;5040609;28;20041;-36
2024/04/08 06:34:11;;;;;;;5.53;2.85;;;12.30;99.90;;;;;;5043332;28;20451;-43
2024/04/08 06:36:37;;;;;;;5.00;2.75;;;12.50;99.90;;;;;;5043398;28;20052;-41
2024/04/08 06:39:03;;;;;;;6.13;2.80;;;12.70;99.90;;;;;;5044404;28;20072;-42
2024/04/08 06:41:28;;;;;;;10.60;2.97;;;12.80;99.90;;;;;;5046138;28;20367;-42
2024/04/08 06:43:54;;;;;;;5.43;2.90;;;13.00;99.90;;;;;;5044832;28;20025;-43
2024/04/08 06:46:20;;;;;;;9.23;3.40;;;13.10;99.90;;;;;;5045846;28;20039;-39
2024/04/08 06:48:46;;;;;;;11.55;3.00;;;13.20;99.90;;;;;;5045030;28;20490;-39
2024/04/08 06:51:11;;;;;;;8.80;2.95;;;13.40;99.90;;;;;;5044809;28;20296;-36
2024/04/08 06:53:37;;;;;;;8.07;2.95;;;13.50;99.90;;;;;;5045017;28;20572;-35
2024/04/08 06:56:04;;;;;;;11.65;3.25;;;13.60;99.90;;;;;;5043277;28;20035;-35
2024/04/08 06:58:30;;;;;;;7.22;2.97;;;13.80;99.90;;;;;;5044498;28;20033;-35
2024/04/08 07:00:56;;;;;;;12.32;3.05;;;13.90;99.90;;;;;;5035815;28;20042;-39
2024/04/08 07:03:22;;;;;;;6.28;2.60;;;14.00;99.90;;;;;;5026519;28;20040;-34
2024/04/08 07:05:47;;;;;;;7.97;2.80;;;14.10;99.90;;;;;;5024408;28;20030;-34
2024/04/08 07:08:16;;;;;;;14.73;3.20;;;14.30;99.90;;;;;;5026252;28;20473;-34
2024/04/08 07:10:44;;;;;;;8.38;2.63;;;14.40;99.90;;;;;;5041369;28;20128;-34
2024/04/08 07:13:10;;;;;;;6.40;2.35;;;14.50;99.90;;;;;;5023743;28;20056;-33
2024/04/08 07:15:35;;;;;;;10.80;2.47;;;14.50;99.90;;;;;;5023248;28;20138;-34
2024/04/08 07:18:02;;;;;;;9.63;3.38;;;14.60;99.90;;;;;;5021277;28;20041;-38
2024/04/08 07:20:27;;;;;;;6.55;2.85;;;14.70;99.90;;;;;;5025216;28;20518;-34
2024/04/08 07:22:53;;;;;;;5.22;2.58;;;14.90;99.90;;;;;;5023615;28;20167;-35
2024/04/08 07:25:18;;;;;;;7.63;2.90;;;15.00;99.90;;;;;;5023477;28;20021;-33
2024/04/08 07:27:44;;;;;;;6.93;2.53;;;15.10;99.90;;;;;;5024332;28;20107;-39
2024/04/08 07:30:11;;;;;;;11.10;2.97;;;15.30;99.90;;;;;;5021514;28;20030;-36
2024/04/08 07:32:37;;;;;;;9.93;3.03;;;15.40;99.90;;;;;;5041107;28;20517;-37
2024/04/08 07:35:04;;;;;;;14.98;3.35;;;15.60;99.90;;;;;;5045235;28;20029;-34
2024/04/08 07:37:30;;;;;;;6.35;3.00;;;15.70;99.90;;;;;;5044547;28;20028;-34
2024/04/08 07:39:55;;;;;;;10.25;3.15;;;15.80;99.90;;;;;;5041258;28;20029;-39
2024/04/08 07:42:24;;;;;;;7.05;3.22;;;16.00;99.90;;;;;;5045327;28;20072;-37
2024/04/08 07:44:51;;;;;;;8.85;3.28;;;16.20;99.90;;;;;;5045227;28;20501;-33
2024/04/08 07:47:20;;;;;;;9.15;2.80;;;16.20;99.90;;;;;;5054072;28;20047;-36
2024/04/08 07:49:47;;;;;;;7.95;2.85;;;16.40;99.90;;;;;;5043491;28;20028;-34
2024/04/08 07:52:13;;;;;;;10.75;2.90;;;16.60;99.90;;;;;;5058707;28;20029;-37
2024/04/08 08:59:34;;;;;;;9.73;2.83;;;20.00;65.70;;;;;;5071161;28;20489;-42
2024/04/08 09:02:00;;;;;;;12.70;2.47;;;20.40;71.90;;;;;;5042309;28;20556;-41
2024/04/08 09:04:26;;;;;;;9.77;2.50;;;20.60;75.40;;;;;;5024964;28;20024;-41
2024/04/08 09:06:56;;;;;;;8.40;1.85;;;20.80;71.70;;;;;;5043046;28;20036;-40
2024/04/08 09:09:22;;;;;;;7.85;2.10;;;21.00;71.60;;;;;;5041777;28;20025;-36
2024/04/08 09:11:48;;;;;;;10.77;2.15;;;21.20;69.30;;;;;;5037930;28;20384;-36
2024/04/08 09:14:14;;;;;;;8.18;2.25;;;21.40;72.70;;;;;;5040948;28;20120;-33
2024/04/08 09:16:42;;;;;;;9.85;2.70;;;21.60;68.30;;;;;;5042244;28;20036;-35
2024/04/08 09:19:08;;;;;;;11.65;2.30;;;21.80;62.80;;;;;;5043188;28;20123;-35
2024/04/08 09:21:34;;;;;;;12.93;2.40;;;21.90;62.30;;;;;;5043300;28;20498;-36
2024/04/08 09:24:07;;;;;;;7.13;2.05;;;22.10;64.60;;;;;;5042992;28;20036;-34
2024/04/08 09:26:34;;;;;;;8.90;2.10;;;22.10;61.30;;;;;;5027331;28;20116;-35
2024/04/08 09:29:00;;;;;;;10.90;2.25;;;22.00;61.20;;;;;;5042166;28;20103;-33
2024/04/08 09:31:27;;;;;;;9.82;1.92;;;21.90;60.90;;;;;;5042121;28;20148;-33
2024/04/08 09:33:53;;;;;;;9.13;2.13;;;22.20;57.20;;;;;;5042143;28;20037;-34
2024/04/08 09:36:20;;;;;;;9.20;2.40;;;22.40;57.40;;;;;;5043281;28;20548;-35
2024/04/08 09:38:47;;;;;;;10.13;2.40;;;22.60;58.10;;;;;;5041621;28;20029;-34
2024/04/08 09:41:13;;;;;;;9.23;2.25;;;23.00;56.80;;;;;;5041869;28;20056;-33
2024/04/08 09:43:40;;;;;;;10.63;2.00;;;23.10;53.50;;;;;;5042554;28;20486;-35
2024/04/08 09:46:09;;;;;;;10.40;2.35;;;23.00;57.80;;;;;;5024414;28;20025;-35
2024/04/08 09:48:37;;;;;;;10.50;2.28;;;22.80;57.30;;;;;;5040903;28;20025;-35
2024/04/08 09:51:05;;;;;;;12.73;2.40;;;22.60;58.70;;;;;;5040623;28;20120;-32
2024/04/08 09:53:32;;;;;;;9.90;2.30;;;22.50;58.60;;;;;;5042829;28;20479;-36
2024/04/08 09:56:03;;;;;;;10.07;2.40;;;22.60;59.90;;;;;;5038099;28;20051;-35
2024/04/08 09:58:33;;;;;;;12.90;2.70;;;22.50;58.30;;;;;;5042029;28;20067;-32
2024/04/08 10:01:05;;;;;;;14.75;2.78;;;22.50;52.60;;;;;;5050212;28;20331;-35
2024/04/08 10:03:54;;;;;;;9.77;2.40;;;22.60;69.20;;;;;;5036203;28;20025;-32
2024/04/08 10:06:20;;;;;;;10.38;2.40;;;22.70;59.90;;;;;;5039124;28;20476;-32
2024/04/08 10:08:47;;;;;;;10.43;2.28;;;22.90;54.90;;;;;;5038774;28;20025;-37
2024/04/08 10:11:14;;;;;;;10.77;2.40;;;23.00;55.50;;;;;;5042531;28;20651;-36
2024/04/08 10:13:50;;;;;;;15.18;2.67;;;22.90;47.10;;;;;;5039329;28;20025;-38
2024/04/08 10:16:16;;;;;;;10.45;2.38;;;23.10;45.70;;;;;;5037029;28;20116;-35
2024/04/08 10:18:50;;;;;;;7.60;2.15;;;23.40;47.40;;;;;;5037887;28;20158;-37
2024/04/08 10:21:19;;;;;;;11.18;2.28;;;23.40;44.40;;;;;;5042402;28;20030;-34
2024/04/08 10:23:45;;;;;;;14.13;2.22;;;23.70;43.40;;;;;;5033605;28;20021;-36
2024/04/08 10:26:15;;;;;;;14.65;2.75;;;23.80;43.80;;;;;;5042081;28;20055;-33
2024/04/08 10:28:41;;;;;;;10.85;2.70;;;23.70;41.00;;;;;;5039518;28;20723;-38
2024/04/08 10:31:07;;;;;;;15.73;2.70;;;23.80;51.20;;;;;;5033726;28;20576;-32
2024/04/08 10:33:34;;;;;;;11.45;2.78;;;23.80;49.90;;;;;;5041352;28;20040;-33
2024/04/08 10:36:01;;;;;;;12.55;2.22;;;23.80;37.80;;;;;;5037548;28;20029;-36
2024/04/08 10:38:27;;;;;;;11.87;2.97;;;23.90;37.70;;;;;;5024614;28;20033;-31
2024/04/08 10:40:54;;;;;;;12.07;2.90;;;24.00;39.70;;;;;;5041590;28;20164;-32
2024/04/08 10:43:22;;;;;;;14.37;2.73;;;24.00;36.30;;;;;;5040304;28;20032;-34
2024/04/08 10:45:52;;;;;;;14.60;2.60;;;24.00;40.20;;;;;;5031932;28;20284;-32
2024/04/08 10:48:18;;;;;;;9.82;2.50;;;24.20;36.40;;;;;;5038852;28;20476;-33
2024/04/08 10:50:50;;;;;;;11.70;2.28;;;24.30;44.30;;;;;;5039432;28;20070;-34
2024/04/08 10:53:16;;;;;;;11.88;2.75;;;24.30;39.90;;;;;;5023437;28;20741;-36
2024/04/08 10:55:42;;;;;;;19.77;2.63;;;24.50;44.00;;;;;;5041970;28;20025;-38
2024/04/08 10:58:11;;;;;;;9.18;2.80;;;24.30;43.30;;;;;;5023651;28;20021;-33
2024/04/08 11:00:37;;;;;;;16.88;3.25;;;24.30;45.40;;;;;;5035871;28;20404;-35
2024/04/08 11:03:03;;;;;;;9.57;2.72;;;24.40;36.00;;;;;;5033869;28;20044;-33
2024/04/08 11:05:29;;;;;;;14.18;3.00;;;24.70;38.20;;;;;;5042048;28;20036;-31
2024/04/08 11:07:58;;;;;;;15.57;2.72;;;25.00;33.90;;;;;;5021051;28;20491;-40
2024/04/08 11:10:24;;;;;;;12.55;2.72;;;25.10;40.70;;;;;;5039377;28;20409;-40
2024/04/08 11:12:50;;;;;;;17.02;2.47;;;25.00;33.30;;;;;;5040551;28;20378;-41
2024/04/08 11:15:16;;;;;;;17.52;3.45;;;25.20;34.00;;;;;;5035075;28;20025;-38
2024/04/08 11:17:41;;;;;;;12.75;2.90;;;25.10;42.30;;;;;;5041137;28;20063;-39
2024/04/08 11:20:10;;;;;;;13.18;2.67;;;24.90;35.50;;;;;;5011924;28;20037;-34
2024/04/08 11:22:35;;;;;;;12.93;2.67;;;24.90;30.90;;;;;;5029482;28;20026;-35
2024/04/08 11:25:03;;;;;;;14.65;3.00;;;25.00;35.80;;;;;;5045948;28;20532;-33
2024/04/08 11:27:28;;;;;;;14.55;2.47;;;25.30;35.70;;;;;;5037147;28;20026;-32
2024/04/08 11:29:54;;;;;;;13.80;2.33;;;25.40;35.80;;;;;;5043866;28;20078;-40
2024/04/08 11:32:21;;;;;;;10.35;2.58;;;25.30;38.40;;;;;;5053534;28;20044;-41
2024/04/08 11:34:47;;;;;;;17.83;2.67;;;25.50;35.60;;;;;;5045543;28;20039;-40
2024/04/08 11:37:13;;;;;;;17.20;3.13;;;25.50;39.00;;;;;;5065094;28;20418;-38
2024/04/08 11:39:40;;;;;;;17.90;3.35;;;25.50;33.70;;;;;;5059060;28;21962;-40
2024/04/08 11:42:07;;;;;;;21.88;3.85;;;25.50;31.70;;;;;;5064171;28;20032;-39
2024/04/08 11:44:34;;;;;;;19.95;3.22;;;25.80;30.90;;;;;;5042918;28;20508;-39
2024/04/08 11:47:00;;;;;;;19.25;3.72;;;25.90;32.00;;;;;;5063014;28;20032;-39
2024/04/08 11:49:26;;;;;;;16.70;3.58;;;26.10;30.40;;;;;;5063331;28;20048;-39
2024/04/08 11:51:52;;;;;;;16.90;3.58;;;26.30;31.10;;;;;;5063749;28;20502;-36
2024/04/08 11:54:18;;;;;;;17.90;2.92;;;26.10;30.40;;;;;;5063660;28;20047;-39
2024/04/08 11:56:44;;;;;;;19.00;3.65;;;25.80;30.30;;;;;;5052233;28;20045;-39
2024/04/08 11:59:10;;;;;;;22.63;3.05;;;26.00;27.50;;;;;;5035323;28;20036;-40
2024/04/08 12:01:36;;;;;;;19.92;3.70;;;26.10;28.20;;;;;;5063157;28;20045;-38
2024/04/08 12:04:06;;;;;;;16.23;3.75;;;25.80;29.00;;;;;;5063756;28;20027;-39
2024/04/08 12:06:31;;;;;;;18.88;3.08;;;25.60;29.50;;;;;;5060736;28;20390;-41
2024/04/08 12:08:57;;;;;;;25.35;2.88;;;25.50;37.20;;;;;;5042262;28;20037;-37
2024/04/08 12:11:23;;;;;;;17.38;3.47;;;25.60;33.60;;;;;;5064217;28;20518;-40
2024/04/08 12:13:50;;;;;;;20.35;4.07;;;25.80;31.40;;;;;;5060966;28;20063;-38
2024/04/08 12:16:16;;;;;;;19.20;3.70;;;25.80;37.30;;;;;;5066421;28;20033;-40
2024/04/08 12:18:43;;;;;;;23.00;4.07;;;25.80;29.50;;;;;;5061821;28;20393;-41
2024/04/08 12:21:09;;;;;;;21.38;3.78;;;25.60;33.10;;;;;;5047252;28;20028;-40
2024/04/08 12:23:35;;;;;;;14.93;3.47;;;25.60;28.00;;;;;;5060291;28;20071;-40
2024/04/08 12:26:01;;;;;;;19.52;3.40;;;25.50;28.10;;;;;;5062235;28;20402;-41
2024/04/08 12:28:26;;;;;;;17.10;3.75;;;25.60;27.60;;;;;;5062073;28;20028;-39
2024/04/08 12:30:53;;;;;;;21.25;3.75;;;25.70;31.30;;;;;;5059103;28;20502;-39
2024/04/08 12:33:21;;;;;;;19.70;4.15;;;25.80;29.60;;;;;;5047299;28;20029;-41
2024/04/08 12:35:48;;;;;;;18.65;3.75;;;26.00;31.50;;;;;;5060512;28;20578;-40
2024/04/08 12:38:14;;;;;;;21.98;3.30;;;26.30;28.10;;;;;;5046393;28;20040;-34
2024/04/08 12:40:40;;;;;;;23.13;3.28;;;26.30;32.00;;;;;;5063615;28;20051;-39
2024/04/08 12:43:06;;;;;;;19.23;3.70;;;26.10;29.40;;;;;;5045998;28;20640;-35
2024/04/08 12:45:32;;;;;;;19.25;4.55;;;26.50;29.10;;;;;;5062379;28;20107;-33
2024/04/08 12:47:58;;;;;;;20.38;3.25;;;26.80;27.70;;;;;;5062702;28;20116;-35
2024/04/08 12:50:24;;;;;;;16.20;3.40;;;27.00;23.70;;;;;;5064487;28;20123;-34
2024/04/08 12:52:49;;;;;;;16.35;2.70;;;27.30;28.10;;;;;;5059941;28;20549;-37
2024/04/08 12:55:15;;;;;;;15.50;3.42;;;27.30;27.40;;;;;;5060484;28;20400;-32
2024/04/08 12:57:41;;;;;;;20.17;3.47;;;27.40;27.80;;;;;;5061336;28;20196;-39
2024/04/08 13:00:10;;;;;;;18.48;4.15;;;27.20;26.60;;;;;;5060935;28;20060;-34
2024/04/08 13:03:46;;;;;;;19.58;4.40;;;27.40;29.20;;;;;;5490392;25;20435;-34
2024/04/08 13:06:11;;;;;;;18.25;3.22;;;27.80;32.00;;;;;;5456788;26;20424;-34
2024/04/08 13:08:37;;;;;;;21.00;2.95;;;27.90;30.00;;;;;;5462839;26;20171;-33
2024/04/08 13:11:03;;;;;;;18.13;3.08;;;27.50;26.30;;;;;;5456254;26;19995;-37
2024/04/08 13:13:38;;;;;;;20.92;3.50;;;27.70;27.60;;;;;;5453160;26;19999;-32
2024/04/08 13:16:05;;;;;;;20.52;3.60;;;27.80;26.90;;;;;;5457485;26;20036;-32
2024/04/08 13:18:30;;;;;;;19.88;3.50;;;27.80;29.70;;;;;;5462711;26;20010;-31
2024/04/08 13:20:56;;;;;;;20.25;3.38;;;28.10;29.40;;;;;;5464744;26;19995;-34
2024/04/08 13:23:22;;;;;;;23.88;3.78;;;28.30;32.50;;;;;;5453963;26;20018;-39
2024/04/08 13:25:47;;;;;;;22.27;3.80;;;28.40;31.30;;;;;;5453991;26;20003;-32
2024/04/08 13:28:13;;;;;;;20.88;3.35;;;28.60;31.00;;;;;;5458122;26;20115;-33
2024/04/08 13:30:39;;;;;;;21.13;4.30;;;28.50;35.40;;;;;;5465031;26;20479;-37
2024/04/08 13:33:04;;;;;;;21.73;3.03;;;28.30;32.40;;;;;;5380128;26;20073;-32
2024/04/08 13:35:31;;;;;;;17.35;4.18;;;28.00;30.40;;;;;;5383315;26;20000;-32
2024/04/08 13:37:56;;;;;;;22.23;3.47;;;28.10;33.10;;;;;;5381070;26;20334;-32
2024/04/08 13:40:22;;;;;;;22.33;3.42;;;27.80;28.60;;;;;;5373610;26;20004;-38
2024/04/08 13:42:47;;;;;;;20.58;3.53;;;27.80;27.60;;;;;;5379089;26;20863;-32
2024/04/08 13:45:13;;;;;;;15.88;3.15;;;27.80;30.70;;;;;;5382561;26;20007;-32